createdAt,value
2023-05-19T00:00:14.474Z,0.00
2023-05-19T00:01:14.306Z,0.00
2023-05-19T00:02:14.571Z,0.00
2023-05-19T00:03:14.561Z,0.00
2023-05-19T00:04:14.413Z,0.00
2023-05-19T00:05:14.616Z,0.00
2023-05-19T00:06:14.485Z,0.00
2023-05-19T00:07:14.313Z,0.00
2023-05-19T00:08:14.639Z,0.00
2023-05-19T00:09:14.243Z,0.00
2023-05-19T00:10:14.256Z,0.00
2023-05-19T00:11:14.262Z,0.00
2023-05-19T00:12:14.805Z,0.00
2023-05-19T00:13:14.233Z,0.00
2023-05-19T00:14:14.476Z,0.00
2023-05-19T00:15:16.156Z,0.00
2023-05-19T00:16:14.540Z,0.00
2023-05-19T00:17:14.286Z,0.00
2023-05-19T00:18:14.445Z,0.00
2023-05-19T00:19:14.463Z,0.00
2023-05-19T00:20:14.193Z,0.00
2023-05-19T00:21:14.216Z,0.00
2023-05-19T00:22:14.232Z,0.00
2023-05-19T00:23:14.248Z,0.00
2023-05-19T00:24:14.231Z,0.00
2023-05-19T00:25:14.238Z,0.00
2023-05-19T00:26:14.249Z,0.00
2023-05-19T00:27:14.376Z,0.00
2023-05-19T00:28:14.161Z,0.00
2023-05-19T00:29:14.114Z,0.00
2023-05-19T00:30:14.490Z,0.00
2023-05-19T00:31:14.097Z,0.00
2023-05-19T00:32:14.179Z,0.00
2023-05-19T00:33:14.093Z,0.00
2023-05-19T00:34:14.093Z,0.00
2023-05-19T00:35:14.100Z,0.00
2023-05-19T00:36:14.077Z,0.00
2023-05-19T00:37:14.053Z,0.00
2023-05-19T00:38:16.046Z,0.00
2023-05-19T00:39:14.109Z,0.00
2023-05-19T00:40:14.041Z,0.00
2023-05-19T00:41:14.041Z,0.00
2023-05-19T00:42:14.026Z,0.00
2023-05-19T00:43:14.034Z,0.00
2023-05-19T00:44:14.041Z,0.00
2023-05-19T00:45:14.086Z,0.00
2023-05-19T00:46:14.322Z,0.00
2023-05-19T00:47:14.019Z,0.00
2023-05-19T00:48:13.999Z,0.00
2023-05-19T00:49:14.008Z,0.00
2023-05-19T00:50:13.991Z,0.00
2023-05-19T00:51:14.016Z,0.00
2023-05-19T00:52:13.963Z,0.00
2023-05-19T00:53:13.965Z,0.00
2023-05-19T00:54:14.140Z,0.00
2023-05-19T00:55:13.938Z,0.00
2023-05-19T00:56:15.897Z,0.00
2023-05-19T00:57:13.923Z,0.00
2023-05-19T00:58:13.945Z,0.00
2023-05-19T00:59:14.272Z,0.00
2023-05-19T01:00:13.919Z,0.00
2023-05-19T01:01:13.943Z,0.00
2023-05-19T01:02:13.909Z,0.00
2023-05-19T01:03:13.978Z,0.00
2023-05-19T01:04:13.884Z,0.00
2023-05-19T01:05:15.816Z,0.00
2023-05-19T01:06:13.860Z,0.00
2023-05-19T01:07:13.892Z,0.00
2023-05-19T01:08:13.863Z,0.00
2023-05-19T01:09:13.860Z,0.00
2023-05-19T01:10:13.844Z,0.00
2023-05-19T01:11:13.823Z,0.00
2023-05-19T01:12:14.291Z,0.00
2023-05-19T01:13:13.827Z,0.00
2023-05-19T01:14:13.815Z,0.00
2023-05-19T01:15:14.289Z,0.00
2023-05-19T01:16:13.950Z,0.00
2023-05-19T01:17:13.817Z,0.00
2023-05-19T01:18:13.814Z,0.00
2023-05-19T01:19:13.970Z,0.00
2023-05-19T01:20:13.819Z,0.00
2023-05-19T01:21:13.844Z,0.00
2023-05-19T01:22:13.772Z,0.00
2023-05-19T01:23:13.770Z,0.00
2023-05-19T01:24:13.754Z,0.00
2023-05-19T01:25:13.968Z,0.00
2023-05-19T01:26:13.769Z,0.00
2023-05-19T01:27:13.713Z,0.00
2023-05-19T01:28:15.690Z,0.00
2023-05-19T01:29:13.705Z,0.00
2023-05-19T01:30:13.728Z,0.00
2023-05-19T01:31:15.666Z,0.00
2023-05-19T01:32:13.727Z,0.00
2023-05-19T01:33:13.690Z,0.00
2023-05-19T01:34:15.651Z,0.00
2023-05-19T01:35:13.685Z,0.00
2023-05-19T01:36:13.668Z,0.00
2023-05-19T01:37:13.665Z,0.00
2023-05-19T01:38:13.663Z,0.00
2023-05-19T01:39:13.649Z,0.00
2023-05-19T01:40:13.692Z,0.00
2023-05-19T01:41:13.620Z,0.00
2023-05-19T01:42:13.632Z,0.00
2023-05-19T01:43:13.613Z,0.00
2023-05-19T01:44:13.688Z,0.00
2023-05-19T01:45:13.794Z,0.00
2023-05-19T01:46:13.645Z,0.00
2023-05-19T01:47:13.800Z,0.00
2023-05-19T01:48:13.743Z,0.00
2023-05-19T01:49:13.615Z,0.00
2023-05-19T01:50:13.584Z,0.00
2023-05-19T01:51:13.559Z,0.00
2023-05-19T01:52:13.585Z,0.00
2023-05-19T01:53:13.554Z,0.00
2023-05-19T01:54:13.557Z,0.00
2023-05-19T01:55:13.532Z,0.00
2023-05-19T01:56:13.540Z,0.00
2023-05-19T01:57:13.569Z,0.00
2023-05-19T01:58:13.679Z,0.00
2023-05-19T01:59:15.508Z,0.00
2023-05-19T02:00:14.103Z,0.00
2023-05-19T02:01:13.629Z,0.00
2023-05-19T02:02:13.520Z,0.00
2023-05-19T02:03:13.613Z,0.00
2023-05-19T02:04:13.559Z,0.00
2023-05-19T02:05:13.496Z,0.00
2023-05-19T02:06:13.738Z,0.00
2023-05-19T02:07:13.526Z,0.00
2023-05-19T02:08:15.431Z,0.00
2023-05-19T02:09:13.857Z,0.00
2023-05-19T02:10:13.454Z,0.00
2023-05-19T02:11:13.461Z,0.00
2023-05-19T02:12:13.489Z,0.00
2023-05-19T02:13:13.490Z,0.00
2023-05-19T02:14:13.488Z,0.00
2023-05-19T02:15:13.494Z,0.00
2023-05-19T02:16:13.583Z,0.00
2023-05-19T02:17:13.612Z,0.00
2023-05-19T02:18:13.620Z,0.00
2023-05-19T02:19:13.450Z,0.00
2023-05-19T02:20:13.525Z,0.00
2023-05-19T02:21:13.440Z,0.00
2023-05-19T02:22:13.443Z,0.00
2023-05-19T02:23:13.432Z,0.00
2023-05-19T02:24:13.357Z,0.00
2023-05-19T02:25:13.667Z,0.00
2023-05-19T02:26:13.367Z,0.00
2023-05-19T02:27:13.386Z,0.00
2023-05-19T02:28:13.696Z,0.00
2023-05-19T02:29:13.578Z,0.00
2023-05-19T02:30:14.771Z,0.00
2023-05-19T02:31:13.610Z,0.00
2023-05-19T02:32:13.416Z,0.00
2023-05-19T02:33:13.532Z,0.00
2023-05-19T02:34:13.280Z,0.00
2023-05-19T02:35:13.526Z,0.00
2023-05-19T02:36:13.296Z,0.00
2023-05-19T02:37:13.449Z,0.00
2023-05-19T02:38:13.753Z,0.00
2023-05-19T02:39:13.449Z,0.00
2023-05-19T02:40:13.259Z,0.00
2023-05-19T02:41:13.381Z,0.00
2023-05-19T02:42:13.270Z,0.00
2023-05-19T02:43:13.228Z,0.00
2023-05-19T02:44:13.683Z,0.00
2023-05-19T02:45:13.297Z,0.00
2023-05-19T02:46:13.213Z,0.00
2023-05-19T02:47:13.607Z,0.00
2023-05-19T02:48:13.976Z,0.00
2023-05-19T02:49:13.522Z,0.00
2023-05-19T02:50:13.238Z,0.00
2023-05-19T02:51:13.179Z,0.00
2023-05-19T02:52:13.157Z,0.00
2023-05-19T02:53:13.166Z,0.00
2023-05-19T02:54:13.460Z,0.00
2023-05-19T02:55:13.264Z,0.00
2023-05-19T02:56:13.217Z,0.00
2023-05-19T02:57:15.087Z,0.00
2023-05-19T02:58:13.281Z,0.00
2023-05-19T02:59:13.311Z,0.00
2023-05-19T03:00:13.119Z,0.00
2023-05-19T03:01:13.115Z,0.00
2023-05-19T03:02:13.166Z,0.00
2023-05-19T03:03:13.616Z,0.00
2023-05-19T03:04:15.065Z,0.00
2023-05-19T03:05:13.120Z,0.00
2023-05-19T03:06:13.059Z,0.00
2023-05-19T03:07:13.058Z,0.00
2023-05-19T03:08:13.344Z,0.00
2023-05-19T03:09:14.515Z,0.00
2023-05-19T03:10:13.670Z,0.00
2023-05-19T03:11:13.271Z,0.00
2023-05-19T03:12:13.273Z,0.00
2023-05-19T03:13:13.584Z,0.00
2023-05-19T03:14:13.180Z,0.00
2023-05-19T03:15:13.190Z,0.00
2023-05-19T03:16:13.129Z,0.00
2023-05-19T03:17:13.188Z,0.00
2023-05-19T03:18:13.058Z,0.00
2023-05-19T03:19:13.121Z,0.00
2023-05-19T03:20:13.064Z,0.00
2023-05-19T03:21:13.029Z,0.00
2023-05-19T03:22:13.146Z,0.00
2023-05-19T03:23:13.051Z,0.00
2023-05-19T03:24:12.950Z,0.00
2023-05-19T03:25:12.970Z,0.00
2023-05-19T03:26:12.981Z,0.00
2023-05-19T03:27:12.980Z,0.00
2023-05-19T03:28:12.983Z,5.62
2023-05-19T03:29:13.100Z,5.62
2023-05-19T03:30:13.107Z,5.62
2023-05-19T03:31:12.919Z,5.62
2023-05-19T03:32:13.312Z,5.62
2023-05-19T03:33:13.176Z,5.62
2023-05-19T03:34:12.923Z,5.62
2023-05-19T03:35:12.882Z,5.62
2023-05-19T03:36:12.933Z,5.62
2023-05-19T03:37:12.958Z,5.62
2023-05-19T03:38:13.253Z,11.25
2023-05-19T03:39:12.854Z,11.25
2023-05-19T03:40:12.873Z,11.25
2023-05-19T03:41:13.168Z,11.25
2023-05-19T03:42:13.399Z,11.25
2023-05-19T03:43:13.088Z,11.25
2023-05-19T03:44:12.816Z,11.25
2023-05-19T03:45:13.406Z,16.88
2023-05-19T03:46:13.080Z,16.88
2023-05-19T03:47:13.011Z,16.88
2023-05-19T03:48:13.144Z,16.88
2023-05-19T03:49:12.925Z,16.88
2023-05-19T03:50:12.793Z,22.50
2023-05-19T03:51:12.753Z,22.50
2023-05-19T03:52:12.772Z,22.50
2023-05-19T03:53:12.755Z,22.50
2023-05-19T03:54:12.769Z,22.50
2023-05-19T03:55:12.772Z,28.12
2023-05-19T03:56:12.779Z,28.12
2023-05-19T03:57:12.782Z,28.12
2023-05-19T03:58:12.796Z,28.12
2023-05-19T03:59:12.797Z,28.12
2023-05-19T04:00:12.723Z,28.12
2023-05-19T04:01:12.710Z,33.75
2023-05-19T04:02:12.760Z,33.75
2023-05-19T04:03:12.887Z,33.75
2023-05-19T04:04:13.093Z,33.75
2023-05-19T04:05:12.742Z,39.38
2023-05-19T04:06:12.681Z,39.38
2023-05-19T04:07:12.848Z,39.38
2023-05-19T04:08:12.746Z,39.38
2023-05-19T04:09:12.758Z,39.38
2023-05-19T04:10:12.911Z,45.00
2023-05-19T04:11:12.675Z,45.00
2023-05-19T04:12:12.675Z,45.00
2023-05-19T04:13:12.685Z,45.00
2023-05-19T04:14:12.690Z,45.00
2023-05-19T04:15:12.618Z,50.62
2023-05-19T04:16:12.982Z,50.62
2023-05-19T04:17:12.617Z,50.62
2023-05-19T04:18:12.865Z,50.62
2023-05-19T04:19:12.856Z,56.25
2023-05-19T04:20:12.628Z,56.25
2023-05-19T04:21:12.648Z,56.25
2023-05-19T04:22:12.562Z,56.25
2023-05-19T04:23:12.756Z,56.25
2023-05-19T04:24:12.660Z,61.88
2023-05-19T04:25:12.662Z,61.88
2023-05-19T04:26:12.884Z,61.88
2023-05-19T04:27:12.573Z,61.88
2023-05-19T04:28:12.586Z,67.50
2023-05-19T04:29:12.898Z,67.50
2023-05-19T04:30:12.514Z,67.50
2023-05-19T04:31:12.524Z,67.50
2023-05-19T04:32:12.816Z,73.12
2023-05-19T04:33:13.192Z,73.12
2023-05-19T04:34:12.723Z,73.12
2023-05-19T04:35:12.632Z,73.12
2023-05-19T04:36:12.552Z,73.12
2023-05-19T04:37:12.552Z,73.12
2023-05-19T04:38:14.411Z,73.12
2023-05-19T04:39:12.567Z,73.12
2023-05-19T04:40:12.574Z,73.12
2023-05-19T04:41:12.456Z,73.12
2023-05-19T04:42:12.704Z,78.75
2023-05-19T04:43:12.484Z,78.75
2023-05-19T04:44:12.488Z,78.75
2023-05-19T04:45:12.824Z,78.75
2023-05-19T04:46:13.708Z,78.75
2023-05-19T04:47:12.432Z,84.38
2023-05-19T04:48:12.434Z,84.38
2023-05-19T04:49:12.612Z,84.38
2023-05-19T04:50:12.406Z,84.38
2023-05-19T04:51:12.646Z,90.00
2023-05-19T04:52:12.358Z,90.00
2023-05-19T04:53:12.360Z,90.00
2023-05-19T04:54:12.359Z,90.00
2023-05-19T04:55:12.336Z,95.62
2023-05-19T04:56:12.347Z,95.62
2023-05-19T04:58:40.590Z,95.62
2023-05-19T04:59:38.381Z,95.62
2023-05-19T05:00:38.289Z,101.25
2023-05-19T05:01:38.477Z,101.25
2023-05-19T05:02:38.409Z,101.25
2023-05-19T05:03:38.399Z,101.25
2023-05-19T05:04:38.500Z,101.25
2023-05-19T05:05:38.508Z,106.88
2023-05-19T05:06:38.244Z,106.88
2023-05-19T05:07:38.534Z,106.88
2023-05-19T05:08:38.529Z,106.88
2023-05-19T05:09:38.302Z,106.88
2023-05-19T05:10:38.192Z,112.50
2023-05-19T05:11:38.325Z,112.50
2023-05-19T05:12:38.325Z,112.50
2023-05-19T05:13:38.319Z,112.50
2023-05-19T05:14:38.581Z,112.50
2023-05-19T05:15:38.296Z,118.12
2023-05-19T05:16:38.227Z,118.12
2023-05-19T05:17:38.277Z,118.12
2023-05-19T05:18:38.253Z,118.12
2023-05-19T05:19:38.165Z,118.12
2023-05-19T05:20:38.330Z,118.12
2023-05-19T05:21:38.131Z,118.12
2023-05-19T05:22:38.153Z,118.12
2023-05-19T05:23:38.263Z,118.12
2023-05-19T05:24:38.136Z,123.75
2023-05-19T05:25:38.159Z,123.75
2023-05-19T05:26:38.096Z,123.75
2023-05-19T05:27:38.249Z,123.75
2023-05-19T05:28:38.300Z,123.75
2023-05-19T05:29:38.082Z,129.38
2023-05-19T05:30:38.237Z,129.38
2023-05-19T05:31:38.218Z,129.38
2023-05-19T05:32:38.132Z,129.38
2023-05-19T05:33:38.483Z,129.38
2023-05-19T05:34:38.157Z,129.38
2023-05-19T05:35:38.036Z,129.38
2023-05-19T05:36:38.449Z,135.00
2023-05-19T05:37:38.093Z,135.00
2023-05-19T05:38:38.017Z,135.00
2023-05-19T05:39:38.027Z,135.00
2023-05-19T05:40:38.035Z,135.00
2023-05-19T05:41:38.026Z,135.00
2023-05-19T05:42:38.029Z,135.00
2023-05-19T05:43:37.979Z,140.62
2023-05-19T05:44:38.220Z,140.62
2023-05-19T05:45:38.029Z,140.62
2023-05-19T05:46:37.965Z,140.62
2023-05-19T05:47:37.974Z,140.62
2023-05-19T05:48:37.933Z,140.62
2023-05-19T05:49:37.917Z,140.62
2023-05-19T05:50:38.054Z,140.62
2023-05-19T05:51:37.954Z,146.25
2023-05-19T05:52:37.922Z,146.25
2023-05-19T05:53:37.902Z,146.25
2023-05-19T05:54:37.905Z,146.25
2023-05-19T05:55:37.906Z,146.25
2023-05-19T05:56:37.916Z,146.25
2023-05-19T05:57:37.893Z,146.25
2023-05-19T05:58:37.896Z,146.25
2023-05-19T05:59:37.901Z,151.88
2023-05-19T06:00:37.876Z,151.88
2023-05-19T06:01:37.887Z,151.88
2023-05-19T06:02:38.000Z,151.88
2023-05-19T06:03:37.931Z,151.88
2023-05-19T06:04:37.875Z,151.88
2023-05-19T06:05:37.910Z,151.88
2023-05-19T06:06:37.828Z,151.88
2023-05-19T06:07:37.816Z,157.50
2023-05-19T06:08:38.263Z,157.50
2023-05-19T06:09:37.908Z,157.50
2023-05-19T06:10:37.910Z,157.50
2023-05-19T06:11:38.221Z,157.50
2023-05-19T06:12:39.750Z,157.50
2023-05-19T06:13:37.772Z,157.50
2023-05-19T06:14:38.134Z,163.12
2023-05-19T06:15:37.810Z,157.50
2023-05-19T06:16:37.882Z,157.50
2023-05-19T06:17:37.788Z,157.50
2023-05-19T06:18:37.870Z,163.12
2023-05-19T06:19:37.742Z,163.12
2023-05-19T06:20:37.754Z,163.12
2023-05-19T06:21:37.729Z,163.12
2023-05-19T06:22:37.719Z,163.12
2023-05-19T06:23:37.745Z,163.12
2023-05-19T06:24:39.449Z,163.12
2023-05-19T06:25:37.704Z,163.12
2023-05-19T06:26:37.702Z,163.12
2023-05-19T06:27:37.687Z,163.12
2023-05-19T06:28:37.704Z,163.12
2023-05-19T06:29:37.680Z,168.75
2023-05-19T06:30:39.621Z,168.75
2023-05-19T06:31:37.688Z,168.75
2023-05-19T06:32:37.734Z,168.75
2023-05-19T06:33:37.655Z,168.75
2023-05-19T06:34:37.650Z,168.75
2023-05-19T06:35:37.643Z,168.75
2023-05-19T06:36:37.624Z,168.75
2023-05-19T06:37:37.698Z,168.75
2023-05-19T06:38:37.738Z,168.75
2023-05-19T06:39:37.681Z,168.75
2023-05-19T06:40:37.718Z,168.75
2023-05-19T06:41:37.753Z,174.38
2023-05-19T06:42:37.590Z,168.75
2023-05-19T06:43:37.575Z,174.38
2023-05-19T06:44:37.614Z,174.38
2023-05-19T06:45:37.567Z,174.38
2023-05-19T06:46:37.619Z,174.38
2023-05-19T06:47:37.630Z,174.38
2023-05-19T06:48:37.535Z,174.38
2023-05-19T06:49:37.747Z,174.38
2023-05-19T06:50:37.537Z,174.38
2023-05-19T06:51:37.536Z,174.38
2023-05-19T06:52:37.512Z,174.38
2023-05-19T06:53:39.467Z,174.38
2023-05-19T06:54:37.499Z,174.38
2023-05-19T06:55:47.210Z,180.00
2023-05-19T06:56:37.509Z,180.00
2023-05-19T06:57:37.658Z,180.00
2023-05-19T06:58:37.478Z,180.00
2023-05-19T06:59:37.482Z,180.00
2023-05-19T07:00:37.544Z,180.00
2023-05-19T07:01:37.457Z,180.00
2023-05-19T07:02:37.519Z,180.00
2023-05-19T07:03:37.494Z,180.00
2023-05-19T07:04:37.442Z,180.00
2023-05-19T07:05:37.568Z,185.62
2023-05-19T07:06:37.422Z,180.00
2023-05-19T07:07:37.454Z,180.00
2023-05-19T07:08:37.489Z,185.62
2023-05-19T07:09:37.873Z,185.62
2023-05-19T07:10:37.437Z,185.62
2023-05-19T07:11:37.430Z,185.62
2023-05-19T07:12:37.976Z,185.62
2023-05-19T07:13:37.398Z,185.62
2023-05-19T07:14:37.385Z,191.25
2023-05-19T07:15:37.554Z,185.62
2023-05-19T07:16:37.552Z,185.62
2023-05-19T07:17:37.363Z,185.62
2023-05-19T07:18:37.693Z,185.62
2023-05-19T07:19:37.429Z,185.62
2023-05-19T07:20:37.422Z,185.62
2023-05-19T07:21:37.764Z,185.62
2023-05-19T07:22:37.348Z,185.62
2023-05-19T07:23:37.342Z,185.62
2023-05-19T07:24:37.646Z,185.62
2023-05-19T07:25:37.287Z,185.62
2023-05-19T07:26:37.290Z,185.62
2023-05-19T07:27:37.582Z,191.25
2023-05-19T07:28:38.715Z,191.25
2023-05-19T07:29:37.506Z,191.25
2023-05-19T07:30:37.263Z,196.88
2023-05-19T07:31:37.738Z,191.25
2023-05-19T07:32:37.446Z,191.25
2023-05-19T07:33:37.250Z,196.88
2023-05-19T07:34:37.750Z,191.25
2023-05-19T07:35:37.365Z,196.88
2023-05-19T07:36:38.234Z,191.25
2023-05-19T07:37:37.661Z,191.25
2023-05-19T07:38:37.252Z,196.88
2023-05-19T07:39:37.260Z,196.88
2023-05-19T07:40:37.577Z,196.88
2023-05-19T07:41:37.186Z,196.88
2023-05-19T07:42:37.214Z,196.88
2023-05-19T07:43:37.173Z,196.88
2023-05-19T07:44:37.346Z,196.88
2023-05-19T07:45:37.440Z,196.88
2023-05-19T07:46:37.270Z,196.88
2023-05-19T07:47:37.233Z,196.88
2023-05-19T07:48:37.234Z,196.88
2023-05-19T07:49:37.124Z,202.50
2023-05-19T07:50:37.311Z,202.50
2023-05-19T07:51:37.098Z,202.50
2023-05-19T07:52:37.262Z,202.50
2023-05-19T07:53:37.393Z,202.50
2023-05-19T07:54:37.184Z,202.50
2023-05-19T07:55:37.177Z,202.50
2023-05-19T07:56:37.521Z,202.50
2023-05-19T07:57:37.098Z,202.50
2023-05-19T07:58:37.107Z,202.50
2023-05-19T07:59:37.261Z,202.50
2023-05-19T08:00:37.066Z,208.12
2023-05-19T08:01:37.072Z,208.12
2023-05-19T08:02:37.090Z,208.12
2023-05-19T08:03:37.815Z,208.12
2023-05-19T08:04:37.302Z,208.12
2023-05-19T08:05:37.287Z,208.12
2023-05-19T08:06:37.578Z,208.12
2023-05-19T08:07:37.176Z,208.12
2023-05-19T08:08:37.186Z,208.12
2023-05-19T08:09:36.979Z,208.12
2023-05-19T08:10:37.042Z,208.12
2023-05-19T08:11:37.007Z,213.75
2023-05-19T08:12:37.109Z,213.75
2023-05-19T08:13:37.030Z,213.75
2023-05-19T08:14:36.954Z,213.75
2023-05-19T08:15:37.406Z,213.75
2023-05-19T08:16:36.954Z,213.75
2023-05-19T08:17:36.982Z,213.75
2023-05-19T08:18:37.268Z,213.75
2023-05-19T08:19:37.580Z,219.38
2023-05-19T08:20:37.181Z,219.38
2023-05-19T08:21:37.199Z,219.38
2023-05-19T08:22:37.267Z,219.38
2023-05-19T08:23:37.102Z,219.38
2023-05-19T08:24:36.902Z,219.38
2023-05-19T08:25:37.374Z,225.00
2023-05-19T08:26:37.920Z,219.38
2023-05-19T08:27:37.020Z,225.00
2023-05-19T08:28:37.307Z,225.00
2023-05-19T08:29:36.942Z,225.00
2023-05-19T08:30:36.949Z,225.00
2023-05-19T08:31:36.850Z,225.00
2023-05-19T08:32:36.889Z,225.00
2023-05-19T08:33:36.862Z,225.00
2023-05-19T08:34:37.101Z,225.00
2023-05-19T08:35:36.783Z,225.00
2023-05-19T08:36:36.790Z,225.00
2023-05-19T08:37:36.773Z,225.00
2023-05-19T08:38:36.797Z,225.00
2023-05-19T08:39:36.869Z,225.00
2023-05-19T08:40:36.763Z,230.62
2023-05-19T08:41:36.742Z,230.62
2023-05-19T08:42:36.941Z,230.62
2023-05-19T08:43:36.759Z,230.62
2023-05-19T08:44:37.181Z,230.62
2023-05-19T08:45:36.724Z,236.25
2023-05-19T08:46:36.759Z,236.25
2023-05-19T08:47:37.200Z,236.25
2023-05-19T08:48:37.420Z,236.25
2023-05-19T08:49:36.700Z,236.25
2023-05-19T08:50:36.914Z,236.25
2023-05-19T08:51:36.678Z,236.25
2023-05-19T08:52:36.710Z,236.25
2023-05-19T08:53:37.032Z,241.88
2023-05-19T08:54:38.620Z,241.88
2023-05-19T08:55:36.654Z,241.88
2023-05-19T08:56:36.656Z,241.88
2023-05-19T08:57:36.927Z,241.88
2023-05-19T08:58:36.628Z,241.88
2023-05-19T08:59:36.631Z,241.88
2023-05-19T09:00:36.891Z,241.88
2023-05-19T09:02:36.670Z,247.50
2023-05-19T09:03:36.711Z,247.50
2023-05-19T09:04:36.793Z,247.50
2023-05-19T09:05:36.819Z,247.50
2023-05-19T09:06:36.582Z,247.50
2023-05-19T09:07:36.567Z,247.50
2023-05-19T09:08:36.574Z,247.50
2023-05-19T09:09:36.575Z,247.50
2023-05-19T09:10:36.660Z,247.50
2023-05-19T09:11:36.737Z,247.50
2023-05-19T09:12:36.530Z,247.50
2023-05-19T09:13:36.544Z,247.50
2023-05-19T09:14:36.631Z,253.12
2023-05-19T09:15:36.992Z,258.75
2023-05-19T09:16:36.715Z,275.62
2023-05-19T09:17:36.717Z,275.62
2023-05-19T09:18:36.508Z,270.00
2023-05-19T09:19:36.702Z,264.38
2023-05-19T09:20:36.621Z,264.38
2023-05-19T09:21:36.459Z,258.75
2023-05-19T09:22:36.731Z,258.75
2023-05-19T09:23:36.493Z,264.38
2023-05-19T09:24:36.554Z,264.38
2023-05-19T09:25:36.691Z,264.38
2023-05-19T09:26:36.461Z,264.38
2023-05-19T09:27:36.440Z,264.38
2023-05-19T09:28:36.882Z,264.38
2023-05-19T09:29:36.493Z,270.00
2023-05-19T09:30:36.408Z,270.00
2023-05-19T09:31:36.542Z,275.62
2023-05-19T09:32:36.790Z,275.62
2023-05-19T09:33:36.639Z,286.88
2023-05-19T09:34:36.410Z,354.38
2023-05-19T09:35:36.399Z,303.75
2023-05-19T09:36:36.458Z,298.12
2023-05-19T09:37:36.384Z,427.50
2023-05-19T09:38:36.362Z,371.25
2023-05-19T09:39:36.461Z,376.88
2023-05-19T09:40:36.350Z,354.38
2023-05-19T09:41:36.776Z,326.25
2023-05-19T09:42:36.378Z,343.12
2023-05-19T09:43:36.502Z,427.50
2023-05-19T09:44:36.333Z,427.50
2023-05-19T09:45:36.297Z,393.75
2023-05-19T09:46:36.392Z,348.75
2023-05-19T09:47:38.338Z,326.25
2023-05-19T09:48:36.955Z,309.38
2023-05-19T09:49:36.293Z,326.25
2023-05-19T09:50:36.283Z,371.25
2023-05-19T09:51:36.265Z,371.25
2023-05-19T09:52:36.265Z,348.75
2023-05-19T09:53:36.312Z,337.50
2023-05-19T09:54:36.240Z,320.62
2023-05-19T09:55:36.238Z,309.38
2023-05-19T09:56:36.215Z,298.12
2023-05-19T09:57:36.235Z,303.75
2023-05-19T09:58:36.236Z,303.75
2023-05-19T09:59:36.215Z,320.62
2023-05-19T10:00:36.623Z,315.00
2023-05-19T10:01:36.243Z,309.38
2023-05-19T10:02:38.221Z,309.38
2023-05-19T10:03:36.392Z,320.62
2023-05-19T10:04:36.188Z,303.75
2023-05-19T10:05:36.329Z,286.88
2023-05-19T10:06:36.162Z,292.50
2023-05-19T10:07:38.125Z,303.75
2023-05-19T10:08:36.263Z,309.38
2023-05-19T10:09:36.156Z,303.75
2023-05-19T10:10:36.134Z,331.88
2023-05-19T10:11:36.145Z,354.38
2023-05-19T10:12:36.133Z,331.88
2023-05-19T10:13:36.103Z,326.25
2023-05-19T10:14:36.126Z,326.25
2023-05-19T10:15:40.873Z,331.88
2023-05-19T10:16:36.171Z,337.50
2023-05-19T10:17:36.100Z,315.00
2023-05-19T10:18:37.513Z,298.12
2023-05-19T10:19:36.149Z,298.12
2023-05-19T10:20:36.061Z,298.12
2023-05-19T10:21:36.165Z,298.12
2023-05-19T10:22:36.037Z,292.50
2023-05-19T10:23:36.045Z,326.25
2023-05-19T10:24:36.070Z,309.38
2023-05-19T10:25:36.037Z,298.12
2023-05-19T10:26:36.103Z,292.50
2023-05-19T10:27:36.046Z,292.50
2023-05-19T10:28:36.109Z,298.12
2023-05-19T10:29:36.123Z,298.12
2023-05-19T10:30:36.127Z,298.12
2023-05-19T10:31:36.069Z,298.12
2023-05-19T10:32:36.021Z,298.12
2023-05-19T10:33:35.975Z,303.75
2023-05-19T10:34:35.952Z,309.38
2023-05-19T10:35:36.385Z,315.00
2023-05-19T10:36:35.962Z,348.75
2023-05-19T10:37:35.942Z,365.62
2023-05-19T10:38:35.949Z,376.88
2023-05-19T10:39:36.097Z,371.25
2023-05-19T10:40:35.962Z,365.62
2023-05-19T10:41:35.930Z,348.75
2023-05-19T10:42:35.898Z,348.75
2023-05-19T10:43:35.910Z,365.62
2023-05-19T10:44:35.919Z,376.88
2023-05-19T10:45:36.105Z,421.88
2023-05-19T10:46:35.905Z,517.50
2023-05-19T10:47:35.919Z,489.38
2023-05-19T10:48:37.316Z,472.50
2023-05-19T10:49:35.886Z,506.25
2023-05-19T10:50:35.856Z,607.50
2023-05-19T10:51:37.806Z,860.62
2023-05-19T10:52:35.826Z,1586.25
2023-05-19T10:53:35.868Z,2227.50
2023-05-19T10:54:35.836Z,2621.25
2023-05-19T10:55:35.827Z,635.62
2023-05-19T10:56:35.819Z,2255.62
2023-05-19T10:57:35.899Z,2452.50
2023-05-19T10:58:36.113Z,2716.88
2023-05-19T10:59:35.815Z,3037.50
2023-05-19T11:00:35.781Z,3020.62
2023-05-19T11:01:35.840Z,2593.12
2023-05-19T11:02:35.795Z,2446.88
2023-05-19T11:03:35.801Z,2379.38
2023-05-19T11:04:35.813Z,2379.38
2023-05-19T11:05:35.924Z,2463.75
2023-05-19T11:06:35.747Z,3093.75
2023-05-19T11:07:35.755Z,2773.12
2023-05-19T11:08:35.828Z,2716.88
2023-05-19T11:09:40.261Z,3076.88
2023-05-19T11:10:35.998Z,3150.00
2023-05-19T11:11:35.714Z,2795.62
2023-05-19T11:12:35.712Z,2610.00
2023-05-19T11:13:36.748Z,2238.75
2023-05-19T11:14:35.687Z,2266.88
2023-05-19T11:15:35.737Z,3037.50
2023-05-19T11:16:35.752Z,3588.75
2023-05-19T11:17:35.749Z,3313.12
2023-05-19T11:18:35.801Z,3346.88
2023-05-19T11:19:35.818Z,3414.38
2023-05-19T11:20:35.728Z,3611.25
2023-05-19T11:21:35.711Z,3960.00
2023-05-19T11:22:35.634Z,3780.00
2023-05-19T11:23:35.980Z,3611.25
2023-05-19T11:24:35.742Z,3633.75
2023-05-19T11:25:35.734Z,1890.00
2023-05-19T11:26:36.077Z,1085.62
2023-05-19T11:27:35.683Z,3616.88
2023-05-19T11:28:35.596Z,2542.50
2023-05-19T11:29:35.635Z,894.38
2023-05-19T11:30:35.598Z,3943.12
2023-05-19T11:31:35.652Z,4123.12
2023-05-19T11:32:35.848Z,3875.62
2023-05-19T11:33:35.853Z,2936.25
2023-05-19T11:34:35.818Z,1749.38
2023-05-19T11:35:36.601Z,3931.88
2023-05-19T11:36:35.720Z,4156.88
2023-05-19T11:37:35.760Z,4308.75
2023-05-19T11:38:35.556Z,4207.50
2023-05-19T11:39:36.061Z,3577.50
2023-05-19T11:40:35.673Z,3555.00
2023-05-19T11:41:35.528Z,3791.25
2023-05-19T11:42:35.774Z,3768.75
2023-05-19T11:43:35.579Z,3639.38
2023-05-19T11:44:35.576Z,3633.75
2023-05-19T11:45:35.997Z,3397.50
2023-05-19T11:46:35.577Z,3633.75
2023-05-19T11:47:46.482Z,3976.88
2023-05-19T11:48:35.850Z,765.00
2023-05-19T11:49:36.063Z,3954.38
2023-05-19T11:50:35.462Z,4106.25
2023-05-19T11:51:35.458Z,3712.50
2023-05-19T11:52:35.782Z,3712.50
2023-05-19T11:53:35.664Z,3931.88
2023-05-19T11:54:35.664Z,3813.75
2023-05-19T11:55:35.972Z,3864.38
2023-05-19T11:56:35.527Z,3937.50
2023-05-19T11:57:35.435Z,4050.00
2023-05-19T11:58:35.901Z,3920.62
2023-05-19T11:59:36.252Z,3909.38
2023-05-19T12:00:35.419Z,4038.75
2023-05-19T12:01:35.539Z,3796.88
2023-05-19T12:02:35.509Z,4095.00
2023-05-19T12:03:35.527Z,1310.62
2023-05-19T12:04:35.596Z,1411.88
2023-05-19T12:05:39.122Z,3358.12
2023-05-19T12:06:35.413Z,3768.75
2023-05-19T12:07:37.337Z,3718.12
2023-05-19T12:08:36.006Z,3678.75
2023-05-19T12:09:35.575Z,2970.00
2023-05-19T12:10:35.369Z,1361.25
2023-05-19T12:11:35.734Z,804.38
2023-05-19T12:12:35.381Z,663.75
2023-05-19T12:13:35.346Z,669.38
2023-05-19T12:14:35.829Z,680.62
2023-05-19T12:15:35.650Z,742.50
2023-05-19T12:16:35.477Z,832.50
2023-05-19T12:17:35.375Z,3881.25
2023-05-19T12:18:35.345Z,4027.50
2023-05-19T12:19:35.290Z,3763.12
2023-05-19T12:20:36.220Z,3594.38
2023-05-19T12:21:35.293Z,3616.88
2023-05-19T12:22:35.320Z,3645.00
2023-05-19T12:23:35.661Z,3611.25
2023-05-19T12:24:35.889Z,3605.62
2023-05-19T12:27:01.458Z,3571.88
2023-05-19T12:28:01.978Z,3515.62
2023-05-19T12:29:01.183Z,3678.75
2023-05-19T12:30:01.262Z,3847.50
2023-05-19T12:31:01.186Z,3988.12
2023-05-19T12:32:01.249Z,4038.75
2023-05-19T12:33:01.172Z,4213.12
2023-05-19T12:34:01.333Z,4314.38
2023-05-19T12:35:01.260Z,4218.75
2023-05-19T12:36:01.259Z,4314.38
2023-05-19T12:37:01.582Z,2716.88
2023-05-19T12:38:01.178Z,3931.88
2023-05-19T12:39:01.193Z,3296.25
2023-05-19T12:41:27.097Z,3504.38
2023-05-19T12:42:27.078Z,3594.38
2023-05-19T12:43:27.465Z,3633.75
2023-05-19T12:44:27.064Z,3639.38
2023-05-19T12:45:27.057Z,3735.00
2023-05-19T12:46:27.089Z,4055.62